KODX

Evelyn Sharp Field Airport

Ord, Nebraska, USA
METAR KODX 210353Z AUTO 03009KT 10SM CLR 01/M02 A2986 RMK AO2 SLP130 T00061017
Observed Flight Rules
Jan-21 @ 03:53 UTC (60 minutes ago) Visual Flight Rules
Wind Visibility Clouds
30° at 9 knots 10 miles
  • Clear skies
Temperatures Readings
Current 1°C / 34°F
Dewpoint -2°C / 28°F
Humidity 81%
Altimeter 29.86" Hg
Pressure 1013 hPa
Elevation 631
METAR KODX 210353Z AUTO 03009KT 10SM CLR 01/M02 A2986 RMK AO2 SLP130 T00061017
Observed Flight Rules
Jan-21 @ 03:53 UTC
(60 minutes ago)
VFR
Wind Visibility
30° at 9 knots 10 miles
Clouds
  • Clear skies
Temperature Dewpoint
1°C / 34°F -2°C / 28°F
Humidity Altimeter Pressure
81% 29.86" Hg 1013 hPa